sensor_id;sensor_type;location;lat;lon;timestamp;P1;durP1;ratioP1;P2;durP2;ratioP2
66327;SDS011;53133;52.862;6.602;2023-07-31T00:00:34;8.63;;;2.97;;
66327;SDS011;53133;52.862;6.602;2023-07-31T00:03:00;5.50;;;2.67;;
66327;SDS011;53133;52.862;6.602;2023-07-31T00:05:25;5.88;;;3.15;;
66327;SDS011;53133;52.862;6.602;2023-07-31T00:07:51;5.38;;;3.08;;
66327;SDS011;53133;52.862;6.602;2023-07-31T00:10:16;5.65;;;2.88;;
66327;SDS011;53133;52.862;6.602;2023-07-31T00:12:43;5.03;;;3.08;;
66327;SDS011;53133;52.862;6.602;2023-07-31T00:15:09;5.32;;;3.45;;
66327;SDS011;53133;52.862;6.602;2023-07-31T00:17:35;5.05;;;2.80;;
66327;SDS011;53133;52.862;6.602;2023-07-31T00:20:01;5.35;;;3.20;;
66327;SDS011;53133;52.862;6.602;2023-07-31T00:22:27;4.10;;;2.78;;
66327;SDS011;53133;52.862;6.602;2023-07-31T00:24:53;6.90;;;3.28;;
66327;SDS011;53133;52.862;6.602;2023-07-31T00:27:18;5.13;;;3.55;;
66327;SDS011;53133;52.862;6.602;2023-07-31T00:29:44;5.60;;;3.50;;
66327;SDS011;53133;52.862;6.602;2023-07-31T00:32:10;4.95;;;3.30;;
66327;SDS011;53133;52.862;6.602;2023-07-31T00:34:35;4.18;;;2.80;;
66327;SDS011;53133;52.862;6.602;2023-07-31T00:37:01;4.45;;;3.20;;
66327;SDS011;53133;52.862;6.602;2023-07-31T00:39:26;9.05;;;3.58;;
66327;SDS011;53133;52.862;6.602;2023-07-31T00:41:52;5.20;;;3.05;;
66327;SDS011;53133;52.862;6.602;2023-07-31T00:44:17;3.60;;;2.90;;
66327;SDS011;53133;52.862;6.602;2023-07-31T00:46:43;3.75;;;3.00;;
66327;SDS011;53133;52.862;6.602;2023-07-31T00:49:09;5.22;;;3.05;;
66327;SDS011;53133;52.862;6.602;2023-07-31T00:51:35;4.15;;;2.85;;
66327;SDS011;53133;52.862;6.602;2023-07-31T00:54:01;4.13;;;3.05;;
66327;SDS011;53133;52.862;6.602;2023-07-31T00:56:29;3.95;;;2.60;;
66327;SDS011;53133;52.862;6.602;2023-07-31T00:58:55;3.45;;;2.35;;
66327;SDS011;53133;52.862;6.602;2023-07-31T01:01:21;4.85;;;2.80;;
66327;SDS011;53133;52.862;6.602;2023-07-31T01:03:47;3.47;;;2.40;;
66327;SDS011;53133;52.862;6.602;2023-07-31T01:09:02;3.95;;;2.30;;
66327;SDS011;53133;52.862;6.602;2023-07-31T01:11:33;3.50;;;2.30;;
66327;SDS011;53133;52.862;6.602;2023-07-31T01:14:03;2.78;;;1.73;;
66327;SDS011;53133;52.862;6.602;2023-07-31T01:16:29;2.85;;;2.17;;
66327;SDS011;53133;52.862;6.602;2023-07-31T01:18:55;5.15;;;2.40;;
66327;SDS011;53133;52.862;6.602;2023-07-31T01:26:34;2.13;;;1.83;;
66327;SDS011;53133;52.862;6.602;2023-07-31T01:29:05;3.13;;;1.70;;
66327;SDS011;53133;52.862;6.602;2023-07-31T01:31:38;2.75;;;1.73;;
66327;SDS011;53133;52.862;6.602;2023-07-31T01:34:06;2.65;;;2.05;;
66327;SDS011;53133;52.862;6.602;2023-07-31T01:36:33;2.03;;;1.60;;
66327;SDS011;53133;52.862;6.602;2023-07-31T01:38:59;2.85;;;1.88;;
66327;SDS011;53133;52.862;6.602;2023-07-31T01:41:26;2.60;;;1.80;;
66327;SDS011;53133;52.862;6.602;2023-07-31T01:43:52;1.92;;;1.60;;
66327;SDS011;53133;52.862;6.602;2023-07-31T01:46:17;2.00;;;1.60;;
66327;SDS011;53133;52.862;6.602;2023-07-31T01:48:43;2.38;;;1.58;;
66327;SDS011;53133;52.862;6.602;2023-07-31T01:51:08;2.20;;;1.35;;
66327;SDS011;53133;52.862;6.602;2023-07-31T01:53:34;2.78;;;1.50;;
66327;SDS011;53133;52.862;6.602;2023-07-31T01:56:00;2.55;;;1.55;;
66327;SDS011;53133;52.862;6.602;2023-07-31T01:58:25;1.45;;;1.17;;
66327;SDS011;53133;52.862;6.602;2023-07-31T02:00:51;3.67;;;1.52;;
66327;SDS011;53133;52.862;6.602;2023-07-31T02:03:16;2.03;;;1.27;;
66327;SDS011;53133;52.862;6.602;2023-07-31T02:05:45;1.30;;;1.20;;
66327;SDS011;53133;52.862;6.602;2023-07-31T02:08:15;2.05;;;1.40;;
66327;SDS011;53133;52.862;6.602;2023-07-31T02:10:41;2.20;;;1.33;;
66327;SDS011;53133;52.862;6.602;2023-07-31T02:13:06;1.60;;;1.30;;
66327;SDS011;53133;52.862;6.602;2023-07-31T02:15:32;1.70;;;1.30;;
66327;SDS011;53133;52.862;6.602;2023-07-31T02:17:58;2.33;;;1.27;;
66327;SDS011;53133;52.862;6.602;2023-07-31T02:20:24;2.38;;;1.30;;
66327;SDS011;53133;52.862;6.602;2023-07-31T02:22:49;1.60;;;1.40;;
66327;SDS011;53133;52.862;6.602;2023-07-31T02:25:15;3.33;;;1.45;;
66327;SDS011;53133;52.862;6.602;2023-07-31T02:27:41;1.60;;;1.50;;
66327;SDS011;53133;52.862;6.602;2023-07-31T02:30:07;1.33;;;1.20;;
66327;SDS011;53133;52.862;6.602;2023-07-31T02:32:33;1.50;;;1.30;;
66327;SDS011;53133;52.862;6.602;2023-07-31T02:34:58;1.30;;;1.20;;
66327;SDS011;53133;52.862;6.602;2023-07-31T02:37:24;2.45;;;1.33;;
66327;SDS011;53133;52.862;6.602;2023-07-31T02:39:50;4.03;;;1.38;;
66327;SDS011;53133;52.862;6.602;2023-07-31T02:42:16;1.40;;;1.30;;
66327;SDS011;53133;52.862;6.602;2023-07-31T02:44:42;1.67;;;1.50;;
66327;SDS011;53133;52.862;6.602;2023-07-31T02:47:07;2.72;;;1.33;;
66327;SDS011;53133;52.862;6.602;2023-07-31T02:49:33;1.33;;;1.20;;
66327;SDS011;53133;52.862;6.602;2023-07-31T02:51:58;1.60;;;1.30;;
66327;SDS011;53133;52.862;6.602;2023-07-31T02:54:24;2.72;;;1.35;;
66327;SDS011;53133;52.862;6.602;2023-07-31T02:56:50;4.15;;;1.33;;
66327;SDS011;53133;52.862;6.602;2023-07-31T02:59:16;1.92;;;1.48;;
66327;SDS011;53133;52.862;6.602;2023-07-31T03:01:42;2.47;;;1.40;;
66327;SDS011;53133;52.862;6.602;2023-07-31T03:04:08;1.50;;;1.40;;
66327;SDS011;53133;52.862;6.602;2023-07-31T03:06:34;2.15;;;1.48;;
66327;SDS011;53133;52.862;6.602;2023-07-31T03:08:59;2.17;;;1.40;;
66327;SDS011;53133;52.862;6.602;2023-07-31T03:11:25;1.58;;;1.48;;
66327;SDS011;53133;52.862;6.602;2023-07-31T03:13:50;1.88;;;1.65;;
66327;SDS011;53133;52.862;6.602;2023-07-31T03:16:16;1.83;;;1.73;;
66327;SDS011;53133;52.862;6.602;2023-07-31T03:18:41;2.78;;;1.90;;
66327;SDS011;53133;52.862;6.602;2023-07-31T03:21:07;2.20;;;1.73;;
66327;SDS011;53133;52.862;6.602;2023-07-31T03:23:33;3.25;;;2.05;;
66327;SDS011;53133;52.862;6.602;2023-07-31T03:26:02;2.58;;;1.90;;
66327;SDS011;53133;52.862;6.602;2023-07-31T03:28:32;1.98;;;1.77;;
66327;SDS011;53133;52.862;6.602;2023-07-31T03:30:57;2.00;;;1.80;;
66327;SDS011;53133;52.862;6.602;2023-07-31T03:33:23;4.45;;;2.35;;
66327;SDS011;53133;52.862;6.602;2023-07-31T03:35:49;4.63;;;2.55;;
66327;SDS011;53133;52.862;6.602;2023-07-31T03:38:14;3.05;;;2.42;;
66327;SDS011;53133;52.862;6.602;2023-07-31T03:40:40;2.80;;;2.42;;
66327;SDS011;53133;52.862;6.602;2023-07-31T03:43:05;4.22;;;2.63;;
66327;SDS011;53133;52.862;6.602;2023-07-31T03:45:31;5.78;;;2.20;;
66327;SDS011;53133;52.862;6.602;2023-07-31T03:47:57;5.53;;;2.60;;
66327;SDS011;53133;52.862;6.602;2023-07-31T03:50:23;3.10;;;2.42;;
66327;SDS011;53133;52.862;6.602;2023-07-31T03:52:50;3.42;;;2.40;;
66327;SDS011;53133;52.862;6.602;2023-07-31T03:55:15;4.97;;;2.70;;
66327;SDS011;53133;52.862;6.602;2023-07-31T03:57:41;4.88;;;2.90;;
66327;SDS011;53133;52.862;6.602;2023-07-31T04:00:07;4.32;;;2.78;;
66327;SDS011;53133;52.862;6.602;2023-07-31T04:02:33;3.83;;;2.35;;
66327;SDS011;53133;52.862;6.602;2023-07-31T04:04:58;3.28;;;2.08;;
66327;SDS011;53133;52.862;6.602;2023-07-31T04:07:24;3.20;;;1.75;;
66327;SDS011;53133;52.862;6.602;2023-07-31T04:09:49;6.10;;;1.52;;
66327;SDS011;53133;52.862;6.602;2023-07-31T04:12:15;2.50;;;1.33;;
66327;SDS011;53133;52.862;6.602;2023-07-31T04:14:40;1.85;;;1.15;;
66327;SDS011;53133;52.862;6.602;2023-07-31T04:17:06;4.55;;;1.40;;
66327;SDS011;53133;52.862;6.602;2023-07-31T04:19:32;3.60;;;1.50;;
66327;SDS011;53133;52.862;6.602;2023-07-31T04:21:57;1.65;;;1.25;;
66327;SDS011;53133;52.862;6.602;2023-07-31T04:24:23;2.35;;;1.35;;
66327;SDS011;53133;52.862;6.602;2023-07-31T04:26:52;2.53;;;1.40;;
66327;SDS011;53133;52.862;6.602;2023-07-31T04:29:18;5.30;;;1.52;;
66327;SDS011;53133;52.862;6.602;2023-07-31T04:31:44;4.28;;;1.95;;
66327;SDS011;53133;52.862;6.602;2023-07-31T04:34:09;6.07;;;2.50;;
66327;SDS011;53133;52.862;6.602;2023-07-31T04:36:36;8.35;;;2.70;;
66327;SDS011;53133;52.862;6.602;2023-07-31T04:39:02;8.20;;;3.25;;
66327;SDS011;53133;52.862;6.602;2023-07-31T04:41:28;8.35;;;3.30;;
66327;SDS011;53133;52.862;6.602;2023-07-31T04:43:53;10.10;;;3.80;;
66327;SDS011;53133;52.862;6.602;2023-07-31T04:46:19;12.90;;;4.35;;
66327;SDS011;53133;52.862;6.602;2023-07-31T04:48:45;10.38;;;4.20;;
66327;SDS011;53133;52.862;6.602;2023-07-31T04:51:10;12.90;;;4.32;;
66327;SDS011;53133;52.862;6.602;2023-07-31T04:53:36;11.20;;;4.50;;
66327;SDS011;53133;52.862;6.602;2023-07-31T04:56:02;20.52;;;5.10;;
66327;SDS011;53133;52.862;6.602;2023-07-31T04:58:28;19.80;;;5.95;;
66327;SDS011;53133;52.862;6.602;2023-07-31T05:00:54;20.42;;;5.60;;
66327;SDS011;53133;52.862;6.602;2023-07-31T05:03:19;19.83;;;5.28;;
66327;SDS011;53133;52.862;6.602;2023-07-31T05:05:45;15.55;;;4.97;;
66327;SDS011;53133;52.862;6.602;2023-07-31T05:08:11;21.50;;;5.60;;
66327;SDS011;53133;52.862;6.602;2023-07-31T05:10:37;14.95;;;5.85;;
66327;SDS011;53133;52.862;6.602;2023-07-31T05:13:02;21.05;;;6.05;;
66327;SDS011;53133;52.862;6.602;2023-07-31T05:15:28;17.80;;;5.80;;
66327;SDS011;53133;52.862;6.602;2023-07-31T05:17:54;27.85;;;7.20;;
66327;SDS011;53133;52.862;6.602;2023-07-31T05:20:20;19.30;;;6.38;;
66327;SDS011;53133;52.862;6.602;2023-07-31T05:22:46;21.27;;;6.88;;
66327;SDS011;53133;52.862;6.602;2023-07-31T05:25:11;36.25;;;7.22;;
66327;SDS011;53133;52.862;6.602;2023-07-31T05:27:37;26.67;;;7.25;;
66327;SDS011;53133;52.862;6.602;2023-07-31T05:30:03;32.70;;;7.00;;
66327;SDS011;53133;52.862;6.602;2023-07-31T05:32:29;32.45;;;8.25;;
66327;SDS011;53133;52.862;6.602;2023-07-31T05:34:55;28.30;;;7.78;;
66327;SDS011;53133;52.862;6.602;2023-07-31T05:37:21;27.48;;;7.57;;
66327;SDS011;53133;52.862;6.602;2023-07-31T05:39:46;32.95;;;7.63;;
66327;SDS011;53133;52.862;6.602;2023-07-31T05:42:12;27.48;;;8.18;;
66327;SDS011;53133;52.862;6.602;2023-07-31T05:44:38;29.90;;;8.25;;
66327;SDS011;53133;52.862;6.602;2023-07-31T05:47:03;38.35;;;9.23;;
66327;SDS011;53133;52.862;6.602;2023-07-31T05:49:29;27.35;;;8.43;;
66327;SDS011;53133;52.862;6.602;2023-07-31T05:51:55;27.65;;;8.52;;
66327;SDS011;53133;52.862;6.602;2023-07-31T05:54:21;34.25;;;8.75;;
66327;SDS011;53133;52.862;6.602;2023-07-31T05:56:46;30.35;;;8.35;;
66327;SDS011;53133;52.862;6.602;2023-07-31T05:59:12;37.03;;;8.90;;
66327;SDS011;53133;52.862;6.602;2023-07-31T06:01:41;39.22;;;8.60;;
66327;SDS011;53133;52.862;6.602;2023-07-31T06:04:07;34.00;;;9.50;;
66327;SDS011;53133;52.862;6.602;2023-07-31T06:06:33;30.70;;;7.97;;
66327;SDS011;53133;52.862;6.602;2023-07-31T06:08:59;27.13;;;7.78;;
66327;SDS011;53133;52.862;6.602;2023-07-31T06:11:25;26.67;;;7.95;;
66327;SDS011;53133;52.862;6.602;2023-07-31T06:13:51;25.48;;;7.93;;
66327;SDS011;53133;52.862;6.602;2023-07-31T06:16:16;19.45;;;6.47;;
66327;SDS011;53133;52.862;6.602;2023-07-31T06:18:42;23.42;;;7.13;;
66327;SDS011;53133;52.862;6.602;2023-07-31T06:21:08;25.35;;;8.27;;
66327;SDS011;53133;52.862;6.602;2023-07-31T06:23:34;30.90;;;8.77;;
66327;SDS011;53133;52.862;6.602;2023-07-31T06:26:00;30.85;;;9.23;;
66327;SDS011;53133;52.862;6.602;2023-07-31T06:28:29;32.85;;;9.32;;
66327;SDS011;53133;52.862;6.602;2023-07-31T06:30:56;28.65;;;8.93;;
66327;SDS011;53133;52.862;6.602;2023-07-31T06:33:22;27.65;;;8.98;;
66327;SDS011;53133;52.862;6.602;2023-07-31T06:35:48;32.00;;;8.85;;
66327;SDS011;53133;52.862;6.602;2023-07-31T06:38:13;29.13;;;8.35;;
66327;SDS011;53133;52.862;6.602;2023-07-31T06:40:39;40.40;;;8.45;;
66327;SDS011;53133;52.862;6.602;2023-07-31T06:43:05;26.42;;;9.15;;
66327;SDS011;53133;52.862;6.602;2023-07-31T06:45:34;30.25;;;9.73;;
66327;SDS011;53133;52.862;6.602;2023-07-31T06:48:01;29.83;;;9.88;;
66327;SDS011;53133;52.862;6.602;2023-07-31T06:50:27;29.77;;;9.32;;
66327;SDS011;53133;52.862;6.602;2023-07-31T06:52:53;30.17;;;9.77;;
66327;SDS011;53133;52.862;6.602;2023-07-31T06:55:19;31.77;;;10.05;;
66327;SDS011;53133;52.862;6.602;2023-07-31T06:57:47;25.15;;;9.35;;
66327;SDS011;53133;52.862;6.602;2023-07-31T07:00:14;22.42;;;9.27;;
66327;SDS011;53133;52.862;6.602;2023-07-31T07:02:41;27.63;;;10.38;;
66327;SDS011;53133;52.862;6.602;2023-07-31T07:05:07;33.63;;;9.65;;
66327;SDS011;53133;52.862;6.602;2023-07-31T07:07:33;27.42;;;8.65;;
66327;SDS011;53133;52.862;6.602;2023-07-31T07:09:59;25.80;;;8.65;;
66327;SDS011;53133;52.862;6.602;2023-07-31T07:12:25;19.27;;;7.65;;
66327;SDS011;53133;52.862;6.602;2023-07-31T07:14:51;22.00;;;7.68;;
66327;SDS011;53133;52.862;6.602;2023-07-31T07:17:18;13.80;;;6.45;;
66327;SDS011;53133;52.862;6.602;2023-07-31T07:19:44;16.40;;;6.85;;
66327;SDS011;53133;52.862;6.602;2023-07-31T07:22:10;16.00;;;6.20;;
66327;SDS011;53133;52.862;6.602;2023-07-31T07:24:36;17.42;;;6.63;;
66327;SDS011;53133;52.862;6.602;2023-07-31T07:27:02;19.77;;;7.03;;
66327;SDS011;53133;52.862;6.602;2023-07-31T07:29:28;19.70;;;6.82;;
66327;SDS011;53133;52.862;6.602;2023-07-31T07:31:54;16.13;;;6.80;;
66327;SDS011;53133;52.862;6.602;2023-07-31T07:34:22;17.40;;;6.50;;
66327;SDS011;53133;52.862;6.602;2023-07-31T07:36:49;17.00;;;6.30;;
66327;SDS011;53133;52.862;6.602;2023-07-31T07:39:15;13.73;;;5.95;;
66327;SDS011;53133;52.862;6.602;2023-07-31T07:41:40;12.88;;;5.57;;
66327;SDS011;53133;52.862;6.602;2023-07-31T07:44:06;10.88;;;4.97;;
66327;SDS011;53133;52.862;6.602;2023-07-31T07:46:32;10.95;;;5.43;;
66327;SDS011;53133;52.862;6.602;2023-07-31T07:48:58;10.35;;;4.78;;
66327;SDS011;53133;52.862;6.602;2023-07-31T07:51:24;13.35;;;4.93;;
66327;SDS011;53133;52.862;6.602;2023-07-31T07:53:49;10.13;;;4.97;;
66327;SDS011;53133;52.862;6.602;2023-07-31T07:56:15;9.90;;;4.78;;
66327;SDS011;53133;52.862;6.602;2023-07-31T07:58:40;8.10;;;3.95;;
66327;SDS011;53133;52.862;6.602;2023-07-31T08:01:06;7.50;;;3.90;;
66327;SDS011;53133;52.862;6.602;2023-07-31T08:03:31;9.10;;;3.88;;
66327;SDS011;53133;52.862;6.602;2023-07-31T08:05:58;11.20;;;4.30;;
66327;SDS011;53133;52.862;6.602;2023-07-31T08:08:25;10.40;;;3.83;;
66327;SDS011;53133;52.862;6.602;2023-07-31T08:10:51;9.55;;;4.30;;
66327;SDS011;53133;52.862;6.602;2023-07-31T08:13:17;8.27;;;4.07;;
66327;SDS011;53133;52.862;6.602;2023-07-31T08:15:43;7.82;;;3.80;;
66327;SDS011;53133;52.862;6.602;2023-07-31T08:18:09;6.78;;;3.58;;
66327;SDS011;53133;52.862;6.602;2023-07-31T08:20:35;8.52;;;4.20;;
66327;SDS011;53133;52.862;6.602;2023-07-31T08:23:00;7.85;;;3.88;;
66327;SDS011;53133;52.862;6.602;2023-07-31T08:25:26;6.35;;;3.80;;
66327;SDS011;53133;52.862;6.602;2023-07-31T08:27:52;5.82;;;3.80;;
66327;SDS011;53133;52.862;6.602;2023-07-31T08:30:18;6.65;;;3.60;;
66327;SDS011;53133;52.862;6.602;2023-07-31T08:32:44;5.40;;;3.80;;
66327;SDS011;53133;52.862;6.602;2023-07-31T08:35:10;5.40;;;3.20;;
66327;SDS011;53133;52.862;6.602;2023-07-31T08:37:35;5.15;;;3.42;;
66327;SDS011;53133;52.862;6.602;2023-07-31T08:40:03;5.20;;;3.17;;
66327;SDS011;53133;52.862;6.602;2023-07-31T08:42:29;4.22;;;3.10;;
66327;SDS011;53133;52.862;6.602;2023-07-31T08:44:55;4.78;;;3.10;;
66327;SDS011;53133;52.862;6.602;2023-07-31T08:47:21;4.97;;;3.10;;
66327;SDS011;53133;52.862;6.602;2023-07-31T08:49:48;4.88;;;3.15;;
66327;SDS011;53133;52.862;6.602;2023-07-31T08:52:16;6.28;;;3.30;;
66327;SDS011;53133;52.862;6.602;2023-07-31T08:54:41;5.20;;;2.55;;
66327;SDS011;53133;52.862;6.602;2023-07-31T08:57:07;4.50;;;2.55;;
66327;SDS011;53133;52.862;6.602;2023-07-31T08:59:34;3.55;;;2.60;;
66327;SDS011;53133;52.862;6.602;2023-07-31T09:02:03;3.88;;;2.65;;
66327;SDS011;53133;52.862;6.602;2023-07-31T09:04:32;4.97;;;2.60;;
66327;SDS011;53133;52.862;6.602;2023-07-31T09:07:00;3.53;;;2.45;;
66327;SDS011;53133;52.862;6.602;2023-07-31T09:09:29;4.53;;;2.05;;
66327;SDS011;53133;52.862;6.602;2023-07-31T09:11:55;3.72;;;2.30;;
66327;SDS011;53133;52.862;6.602;2023-07-31T09:14:24;2.60;;;2.35;;
66327;SDS011;53133;52.862;6.602;2023-07-31T09:16:55;2.60;;;1.88;;
66327;SDS011;53133;52.862;6.602;2023-07-31T09:19:39;3.03;;;2.00;;
66327;SDS011;53133;52.862;6.602;2023-07-31T09:22:05;4.03;;;1.98;;
66327;SDS011;53133;52.862;6.602;2023-07-31T09:24:32;2.13;;;1.75;;
66327;SDS011;53133;52.862;6.602;2023-07-31T09:26:59;2.55;;;1.63;;
66327;SDS011;53133;52.862;6.602;2023-07-31T09:29:26;3.10;;;1.63;;
66327;SDS011;53133;52.862;6.602;2023-07-31T09:31:53;2.95;;;1.60;;
66327;SDS011;53133;52.862;6.602;2023-07-31T09:34:19;2.63;;;1.70;;
66327;SDS011;53133;52.862;6.602;2023-07-31T09:36:46;2.08;;;1.73;;
66327;SDS011;53133;52.862;6.602;2023-07-31T09:39:13;2.25;;;1.58;;
66327;SDS011;53133;52.862;6.602;2023-07-31T09:41:48;4.28;;;1.90;;
66327;SDS011;53133;52.862;6.602;2023-07-31T09:44:19;2.63;;;1.73;;
66327;SDS011;53133;52.862;6.602;2023-07-31T09:46:45;2.70;;;1.50;;
66327;SDS011;53133;52.862;6.602;2023-07-31T09:49:11;1.75;;;1.50;;
66327;SDS011;53133;52.862;6.602;2023-07-31T09:51:38;2.22;;;1.50;;
66327;SDS011;53133;52.862;6.602;2023-07-31T09:54:23;2.05;;;1.58;;
66327;SDS011;53133;52.862;6.602;2023-07-31T09:56:48;1.60;;;1.50;;
66327;SDS011;53133;52.862;6.602;2023-07-31T09:59:15;2.67;;;1.48;;
66327;SDS011;53133;52.862;6.602;2023-07-31T10:01:43;3.65;;;1.48;;
66327;SDS011;53133;52.862;6.602;2023-07-31T10:04:11;1.45;;;1.35;;
66327;SDS011;53133;52.862;6.602;2023-07-31T10:06:38;2.40;;;1.60;;
66327;SDS011;53133;52.862;6.602;2023-07-31T10:09:06;4.03;;;1.83;;
66327;SDS011;53133;52.862;6.602;2023-07-31T10:11:34;2.22;;;1.98;;
66327;SDS011;53133;52.862;6.602;2023-07-31T10:14:22;1.63;;;1.42;;
66327;SDS011;53133;52.862;6.602;2023-07-31T10:16:49;1.70;;;1.60;;
66327;SDS011;53133;52.862;6.602;2023-07-31T10:19:15;2.75;;;1.90;;
66327;SDS011;53133;52.862;6.602;2023-07-31T10:21:42;2.00;;;1.80;;
66327;SDS011;53133;52.862;6.602;2023-07-31T10:24:08;2.75;;;1.80;;
66327;SDS011;53133;52.862;6.602;2023-07-31T10:26:34;4.03;;;1.75;;
66327;SDS011;53133;52.862;6.602;2023-07-31T10:29:02;2.92;;;2.10;;
66327;SDS011;53133;52.862;6.602;2023-07-31T10:31:29;2.20;;;1.80;;
66327;SDS011;53133;52.862;6.602;2023-07-31T10:33:56;2.35;;;2.00;;
66327;SDS011;53133;52.862;6.602;2023-07-31T10:36:24;3.70;;;2.22;;
66327;SDS011;53133;52.862;6.602;2023-07-31T10:38:50;2.92;;;2.20;;
66327;SDS011;53133;52.862;6.602;2023-07-31T10:41:16;2.38;;;2.17;;
66327;SDS011;53133;52.862;6.602;2023-07-31T10:43:42;1.92;;;1.80;;
66327;SDS011;53133;52.862;6.602;2023-07-31T10:46:11;1.80;;;1.67;;
66327;SDS011;53133;52.862;6.602;2023-07-31T10:48:38;1.77;;;1.67;;
66327;SDS011;53133;52.862;6.602;2023-07-31T10:51:07;1.70;;;1.60;;
66327;SDS011;53133;52.862;6.602;2023-07-31T10:53:35;1.70;;;1.60;;
66327;SDS011;53133;52.862;6.602;2023-07-31T10:56:08;1.80;;;1.70;;
66327;SDS011;53133;52.862;6.602;2023-07-31T10:58:37;1.80;;;1.60;;
66327;SDS011;53133;52.862;6.602;2023-07-31T11:01:04;1.50;;;1.40;;
66327;SDS011;53133;52.862;6.602;2023-07-31T11:03:49;2.15;;;1.45;;
66327;SDS011;53133;52.862;6.602;2023-07-31T11:06:18;2.22;;;1.60;;
66327;SDS011;53133;52.862;6.602;2023-07-31T11:08:45;2.28;;;1.73;;
66327;SDS011;53133;52.862;6.602;2023-07-31T11:11:15;2.10;;;1.90;;
66327;SDS011;53133;52.862;6.602;2023-07-31T11:13:46;1.95;;;1.75;;
66327;SDS011;53133;52.862;6.602;2023-07-31T11:16:15;1.88;;;1.77;;
66327;SDS011;53133;52.862;6.602;2023-07-31T11:18:42;2.53;;;1.60;;
66327;SDS011;53133;52.862;6.602;2023-07-31T11:21:13;1.60;;;1.50;;
66327;SDS011;53133;52.862;6.602;2023-07-31T11:23:46;1.67;;;1.58;;
66327;SDS011;53133;52.862;6.602;2023-07-31T11:26:12;1.55;;;1.42;;
66327;SDS011;53133;52.862;6.602;2023-07-31T11:28:39;1.80;;;1.70;;
66327;SDS011;53133;52.862;6.602;2023-07-31T11:31:08;2.28;;;1.80;;
66327;SDS011;53133;52.862;6.602;2023-07-31T11:33:34;1.35;;;1.25;;
66327;SDS011;53133;52.862;6.602;2023-07-31T11:36:00;1.38;;;1.20;;
66327;SDS011;53133;52.862;6.602;2023-07-31T11:38:29;1.20;;;1.10;;
66327;SDS011;53133;52.862;6.602;2023-07-31T11:41:00;1.30;;;1.20;;
66327;SDS011;53133;52.862;6.602;2023-07-31T11:43:28;1.35;;;1.20;;
66327;SDS011;53133;52.862;6.602;2023-07-31T11:45:55;1.35;;;1.25;;
66327;SDS011;53133;52.862;6.602;2023-07-31T11:48:25;2.00;;;1.25;;
66327;SDS011;53133;52.862;6.602;2023-07-31T11:50:59;1.58;;;1.08;;
66327;SDS011;53133;52.862;6.602;2023-07-31T11:53:27;2.20;;;1.48;;
66327;SDS011;53133;52.862;6.602;2023-07-31T11:56:11;2.03;;;1.50;;
66327;SDS011;53133;52.862;6.602;2023-07-31T11:58:39;4.47;;;2.10;;
66327;SDS011;53133;52.862;6.602;2023-07-31T12:01:05;5.82;;;2.78;;
66327;SDS011;53133;52.862;6.602;2023-07-31T12:03:32;7.20;;;3.45;;
66327;SDS011;53133;52.862;6.602;2023-07-31T12:05:58;5.75;;;3.63;;
66327;SDS011;53133;52.862;6.602;2023-07-31T12:08:24;8.35;;;3.67;;
66327;SDS011;53133;52.862;6.602;2023-07-31T12:10:50;4.97;;;3.22;;
66327;SDS011;53133;52.862;6.602;2023-07-31T12:13:21;3.88;;;2.65;;
66327;SDS011;53133;52.862;6.602;2023-07-31T12:15:48;3.65;;;2.50;;
66327;SDS011;53133;52.862;6.602;2023-07-31T12:18:19;7.07;;;2.83;;
66327;SDS011;53133;52.862;6.602;2023-07-31T12:21:27;3.47;;;2.03;;
66327;SDS011;53133;52.862;6.602;2023-07-31T12:23:37;3.53;;;2.35;;
66327;SDS011;53133;52.862;6.602;2023-07-31T12:28:29;4.70;;;1.92;;
66327;SDS011;53133;52.862;6.602;2023-07-31T12:30:59;4.78;;;1.83;;
66327;SDS011;53133;52.862;6.602;2023-07-31T12:33:32;4.60;;;1.92;;
66327;SDS011;53133;52.862;6.602;2023-07-31T12:36:00;3.72;;;1.50;;
66327;SDS011;53133;52.862;6.602;2023-07-31T12:38:28;1.60;;;1.50;;
66327;SDS011;53133;52.862;6.602;2023-07-31T12:40:54;3.40;;;1.83;;
66327;SDS011;53133;52.862;6.602;2023-07-31T12:43:19;4.15;;;2.08;;
66327;SDS011;53133;52.862;6.602;2023-07-31T12:45:45;2.95;;;1.98;;
66327;SDS011;53133;52.862;6.602;2023-07-31T12:48:12;4.85;;;2.40;;
66327;SDS011;53133;52.862;6.602;2023-07-31T12:50:38;3.53;;;2.55;;
66327;SDS011;53133;52.862;6.602;2023-07-31T12:53:04;3.47;;;2.50;;
66327;SDS011;53133;52.862;6.602;2023-07-31T12:55:30;3.67;;;2.75;;
66327;SDS011;53133;52.862;6.602;2023-07-31T12:57:56;6.45;;;3.42;;
66327;SDS011;53133;52.862;6.602;2023-07-31T13:00:22;6.28;;;3.90;;
66327;SDS011;53133;52.862;6.602;2023-07-31T13:02:47;7.60;;;4.07;;
66327;SDS011;53133;52.862;6.602;2023-07-31T13:05:14;5.38;;;4.30;;
66327;SDS011;53133;52.862;6.602;2023-07-31T13:07:39;9.45;;;4.00;;
66327;SDS011;53133;52.862;6.602;2023-07-31T13:10:06;9.85;;;4.50;;
66327;SDS011;53133;52.862;6.602;2023-07-31T13:12:32;9.23;;;4.93;;
66327;SDS011;53133;52.862;6.602;2023-07-31T13:14:58;9.13;;;4.82;;
66327;SDS011;53133;52.862;6.602;2023-07-31T13:17:24;10.95;;;5.28;;
66327;SDS011;53133;52.862;6.602;2023-07-31T13:19:49;11.70;;;5.22;;
66327;SDS011;53133;52.862;6.602;2023-07-31T13:22:15;13.38;;;4.70;;
66327;SDS011;53133;52.862;6.602;2023-07-31T13:24:41;9.13;;;4.75;;
66327;SDS011;53133;52.862;6.602;2023-07-31T13:27:06;8.85;;;3.88;;
66327;SDS011;53133;52.862;6.602;2023-07-31T13:29:32;9.20;;;3.88;;
66327;SDS011;53133;52.862;6.602;2023-07-31T13:31:58;7.60;;;3.83;;
66327;SDS011;53133;52.862;6.602;2023-07-31T13:34:23;9.43;;;4.05;;
66327;SDS011;53133;52.862;6.602;2023-07-31T13:36:49;7.70;;;3.60;;
66327;SDS011;53133;52.862;6.602;2023-07-31T13:39:15;7.32;;;3.58;;
66327;SDS011;53133;52.862;6.602;2023-07-31T13:41:40;7.55;;;3.47;;
66327;SDS011;53133;52.862;6.602;2023-07-31T13:44:06;7.50;;;3.33;;
66327;SDS011;53133;52.862;6.602;2023-07-31T13:46:32;7.10;;;3.22;;
66327;SDS011;53133;52.862;6.602;2023-07-31T13:48:58;7.85;;;3.35;;
66327;SDS011;53133;52.862;6.602;2023-07-31T13:51:24;6.13;;;3.10;;
66327;SDS011;53133;52.862;6.602;2023-07-31T13:53:50;7.78;;;3.47;;
66327;SDS011;53133;52.862;6.602;2023-07-31T13:56:16;11.95;;;3.47;;
66327;SDS011;53133;52.862;6.602;2023-07-31T13:58:42;7.60;;;3.00;;
66327;SDS011;53133;52.862;6.602;2023-07-31T14:01:07;6.70;;;3.15;;
66327;SDS011;53133;52.862;6.602;2023-07-31T14:03:34;8.27;;;3.47;;
66327;SDS011;53133;52.862;6.602;2023-07-31T14:05:59;6.15;;;3.10;;
66327;SDS011;53133;52.862;6.602;2023-07-31T14:08:25;9.32;;;3.50;;
66327;SDS011;53133;52.862;6.602;2023-07-31T14:10:51;8.43;;;3.22;;
66327;SDS011;53133;52.862;6.602;2023-07-31T14:13:16;6.68;;;2.92;;
66327;SDS011;53133;52.862;6.602;2023-07-31T14:15:42;5.72;;;3.00;;
66327;SDS011;53133;52.862;6.602;2023-07-31T14:18:08;10.07;;;3.70;;
66327;SDS011;53133;52.862;6.602;2023-07-31T14:20:34;7.40;;;3.40;;
66327;SDS011;53133;52.862;6.602;2023-07-31T14:23:00;11.15;;;3.78;;
66327;SDS011;53133;52.862;6.602;2023-07-31T14:25:26;9.98;;;3.85;;
66327;SDS011;53133;52.862;6.602;2023-07-31T14:27:52;7.05;;;3.65;;
66327;SDS011;53133;52.862;6.602;2023-07-31T14:30:17;10.02;;;3.95;;
66327;SDS011;53133;52.862;6.602;2023-07-31T14:32:43;6.45;;;3.38;;
66327;SDS011;53133;52.862;6.602;2023-07-31T14:35:09;7.15;;;3.35;;
66327;SDS011;53133;52.862;6.602;2023-07-31T14:37:41;10.13;;;4.13;;
66327;SDS011;53133;52.862;6.602;2023-07-31T14:40:09;8.70;;;3.38;;
66327;SDS011;53133;52.862;6.602;2023-07-31T14:42:36;7.50;;;3.50;;
66327;SDS011;53133;52.862;6.602;2023-07-31T14:45:02;11.07;;;3.63;;
66327;SDS011;53133;52.862;6.602;2023-07-31T14:47:28;7.05;;;3.75;;
66327;SDS011;53133;52.862;6.602;2023-07-31T14:49:56;9.48;;;4.07;;